createdAt,value
2019-04-26T00:01:25.844Z,6.17
2019-04-26T00:03:56.706Z,4.33
2019-04-26T00:06:27.554Z,3.50
2019-04-26T00:09:16.531Z,3.42
2019-04-26T00:12:11.310Z,4.40
2019-04-26T00:15:00.490Z,3.20
2019-04-26T00:17:58.033Z,4.03
2019-04-26T00:20:28.577Z,5.58
2019-04-26T00:23:00.957Z,6.12
2019-04-26T00:25:31.592Z,5.30
2019-04-26T00:28:02.162Z,4.90
2019-04-26T00:30:32.750Z,3.48
2019-04-26T00:33:03.464Z,4.67
2019-04-26T00:35:46.784Z,5.62
2019-04-26T00:38:07.863Z,3.85
2019-04-26T00:40:38.828Z,3.72
2019-04-26T00:43:10.027Z,5.42
2019-04-26T00:45:41.684Z,5.55
2019-04-26T00:48:15.019Z,5.30
2019-04-26T00:50:47.791Z,4.17
2019-04-26T00:53:21.694Z,4.60
2019-04-26T00:55:52.946Z,5.62
2019-04-26T00:58:25.143Z,4.47
2019-04-26T01:00:55.727Z,4.53
2019-04-26T01:03:26.573Z,3.37
2019-04-26T01:06:00.132Z,4.83
2019-04-26T01:08:30.917Z,3.90
2019-04-26T01:11:01.524Z,5.72
2019-04-26T01:13:33.193Z,4.87
2019-04-26T01:16:05.037Z,5.25
2019-04-26T01:18:36.938Z,5.55
2019-04-26T01:21:11.033Z,4.78
2019-04-26T01:23:44.242Z,3.50
2019-04-26T01:26:27.429Z,3.58
2019-04-26T01:29:07.784Z,3.70
2019-04-26T01:31:53.972Z,4.55
2019-04-26T01:34:26.166Z,6.55
2019-04-26T01:36:58.585Z,4.50
2019-04-26T01:39:29.732Z,3.92
2019-04-26T01:42:08.438Z,4.67
2019-04-26T01:44:52.400Z,6.58
2019-04-26T01:47:24.133Z,3.67
2019-04-26T01:49:55.766Z,5.53
2019-04-26T01:52:27.657Z,4.17
2019-04-26T01:54:58.626Z,3.12
2019-04-26T01:57:31.589Z,5.97
2019-04-26T02:00:15.498Z,5.72
2019-04-26T02:02:54.452Z,6.35
2019-04-26T02:05:27.905Z,4.33
2019-04-26T02:07:59.035Z,4.08
2019-04-26T02:10:30.721Z,3.80
2019-04-26T02:13:02.612Z,5.95
2019-04-26T02:15:36.252Z,9.18
2019-04-26T02:18:07.986Z,3.95
2019-04-26T02:21:36.600Z,4.50
2019-04-26T02:24:32.594Z,4.05
2019-04-26T02:27:05.765Z,5.22
2019-04-26T02:29:37.445Z,5.15
2019-04-26T02:32:09.623Z,3.70
2019-04-26T02:34:40.655Z,3.98
2019-04-26T02:37:14.243Z,5.35
2019-04-26T02:39:45.306Z,3.50
2019-04-26T02:42:48.807Z,4.33
2019-04-26T02:46:16.600Z,5.10
2019-04-26T02:49:15.405Z,6.53
2019-04-26T02:52:12.284Z,6.42
2019-04-26T02:54:58.122Z,4.67
2019-04-26T02:57:55.224Z,3.95
2019-04-26T03:00:25.795Z,3.53
2019-04-26T03:03:04.648Z,5.85
2019-04-26T03:05:39.936Z,3.70
2019-04-26T03:08:22.384Z,3.65
2019-04-26T03:11:06.199Z,3.62
2019-04-26T03:14:18.973Z,5.95
2019-04-26T03:17:04.395Z,5.85
2019-04-26T03:20:05.916Z,6.08
2019-04-26T03:23:58.332Z,4.08
2019-04-26T03:26:44.876Z,6.15
2019-04-26T03:30:18.617Z,5.75
2019-04-26T03:33:43.477Z,5.72
2019-04-26T03:36:51.663Z,4.40
2019-04-26T03:39:39.238Z,3.85
2019-04-26T03:43:05.514Z,4.22
2019-04-26T03:46:31.796Z,5.05
2019-04-26T03:50:01.001Z,4.58
2019-04-26T03:52:58.794Z,6.12
2019-04-26T03:56:17.349Z,4.78
2019-04-26T03:59:26.830Z,6.72
2019-04-26T04:02:41.522Z,4.58
2019-04-26T04:05:31.360Z,4.45
2019-04-26T04:08:06.366Z,5.65
2019-04-26T04:10:47.721Z,6.80
2019-04-26T04:13:47.956Z,5.42
2019-04-26T04:17:03.701Z,5.60
2019-04-26T04:20:25.726Z,6.05
2019-04-26T04:23:24.723Z,5.60
2019-04-26T04:25:58.586Z,6.20
2019-04-26T04:29:51.050Z,5.08
2019-04-26T04:32:43.784Z,7.37
2019-04-26T04:35:16.557Z,4.75
2019-04-26T04:38:08.426Z,4.47
2019-04-26T04:41:11.750Z,4.20
2019-04-26T04:43:56.082Z,6.22
2019-04-26T04:47:35.323Z,6.50
2019-04-26T04:50:46.547Z,7.22
2019-04-26T04:53:53.672Z,7.78
2019-04-26T04:57:25.862Z,5.22
2019-04-26T05:00:35.319Z,6.85
2019-04-26T05:03:32.715Z,4.25
2019-04-26T05:06:42.704Z,5.55
2019-04-26T05:09:28.701Z,8.20
2019-04-26T05:12:39.518Z,5.10
2019-04-26T05:15:47.125Z,6.47
2019-04-26T05:19:02.146Z,3.75
2019-04-26T05:21:57.014Z,5.28
2019-04-26T05:25:08.619Z,5.62
2019-04-26T05:28:14.676Z,5.97
2019-04-26T05:31:25.553Z,4.72
2019-04-26T05:34:44.091Z,6.17
2019-04-26T05:38:18.339Z,8.70
2019-04-26T05:41:52.153Z,4.20
2019-04-26T05:45:35.796Z,4.95
2019-04-26T05:48:58.003Z,5.33
2019-04-26T05:52:25.812Z,5.40
2019-04-26T05:56:04.994Z,7.78
2019-04-26T05:59:17.912Z,6.70
2019-04-26T06:03:05.172Z,4.85
2019-04-26T06:06:22.721Z,4.10
2019-04-26T06:09:52.808Z,4.87
2019-04-26T06:12:59.079Z,4.58
2019-04-26T06:16:14.647Z,3.98
2019-04-26T06:19:17.113Z,3.65
2019-04-26T06:22:12.332Z,1.60
2019-04-26T06:25:27.455Z,1.42
2019-04-26T06:28:41.481Z,6.53
2019-04-26T06:31:42.445Z,5.45
2019-04-26T06:34:36.277Z,6.33
2019-04-26T06:37:27.260Z,3.35
2019-04-26T06:40:16.843Z,3.80
2019-04-26T06:43:30.385Z,2.42
2019-04-26T06:46:51.650Z,4.60
2019-04-26T06:50:03.467Z,3.20
2019-04-26T06:52:42.345Z,2.55
2019-04-26T06:55:28.226Z,2.85
2019-04-26T06:59:10.340Z,3.17
2019-04-26T07:01:59.050Z,2.25
2019-04-26T07:05:24.491Z,3.22
2019-04-26T07:08:30.604Z,2.27
2019-04-26T07:12:44.924Z,2.33
2019-04-26T07:15:49.722Z,2.27
2019-04-26T07:19:11.203Z,3.10
2019-04-26T07:22:21.332Z,1.62
2019-04-26T07:25:52.740Z,2.05
2019-04-26T07:28:49.375Z,1.30
2019-04-26T07:31:48.463Z,2.12
2019-04-26T07:35:04.599Z,1.12
2019-04-26T07:38:06.895Z,2.92
2019-04-26T07:41:39.935Z,1.27
2019-04-26T07:45:39.854Z,1.70
2019-04-26T07:49:19.084Z,1.25
2019-04-26T07:52:34.473Z,2.87
2019-04-26T07:56:14.947Z,4.00
2019-04-26T07:59:49.902Z,1.92
2019-04-26T08:03:07.086Z,2.90
2019-04-26T08:06:18.926Z,3.35
2019-04-26T08:09:00.522Z,1.17
2019-04-26T08:11:40.829Z,5.75
2019-04-26T08:14:22.981Z,1.57
2019-04-26T08:17:35.374Z,3.02
2019-04-26T08:20:28.295Z,2.05
2019-04-26T08:23:08.618Z,2.00
2019-04-26T08:25:41.477Z,2.37
2019-04-26T08:28:16.512Z,1.85
2019-04-26T08:30:50.782Z,3.70
2019-04-26T08:33:33.142Z,2.77
2019-04-26T08:36:08.769Z,2.10
2019-04-26T08:38:41.497Z,2.30
2019-04-26T08:41:13.693Z,1.95
2019-04-26T08:44:14.485Z,2.83
2019-04-26T08:47:26.548Z,4.20
2019-04-26T08:50:17.950Z,4.75
2019-04-26T08:52:52.720Z,1.70
2019-04-26T08:55:27.305Z,1.75
2019-04-26T08:58:03.196Z,2.98
2019-04-26T09:01:00.127Z,1.75
2019-04-26T09:03:45.066Z,2.65
2019-04-26T09:06:28.065Z,1.70
2019-04-26T09:09:04.005Z,3.42
2019-04-26T09:11:38.264Z,3.25
2019-04-26T09:14:11.477Z,5.72
2019-04-26T09:16:50.175Z,2.05
2019-04-26T09:19:16.145Z,3.30
2019-04-26T09:21:53.698Z,4.20
2019-04-26T09:24:46.378Z,1.82
2019-04-26T09:27:48.214Z,4.50
2019-04-26T09:30:38.594Z,2.80
2019-04-26T09:33:47.338Z,2.62
2019-04-26T09:36:18.331Z,2.83
2019-04-26T09:38:48.959Z,4.12
2019-04-26T09:41:21.350Z,3.00
2019-04-26T09:44:07.565Z,2.77
2019-04-26T09:46:55.788Z,2.37
2019-04-26T09:49:52.798Z,2.00
2019-04-26T09:52:27.749Z,2.42
2019-04-26T09:54:58.455Z,1.85
2019-04-26T09:57:29.111Z,6.58
2019-04-26T09:59:59.762Z,2.98
2019-04-26T10:02:33.828Z,2.10
2019-04-26T10:05:02.810Z,2.83
2019-04-26T10:07:37.535Z,3.12
2019-04-26T10:10:06.723Z,4.17
2019-04-26T10:12:55.135Z,2.45
2019-04-26T10:15:34.140Z,4.47
2019-04-26T10:18:05.011Z,1.85
2019-04-26T10:20:35.589Z,5.55
2019-04-26T10:23:06.488Z,4.37
2019-04-26T10:25:37.155Z,4.05
2019-04-26T10:28:07.878Z,2.58
2019-04-26T10:30:46.512Z,2.44
2019-04-26T10:33:17.094Z,3.08
2019-04-26T10:35:47.942Z,2.72
2019-04-26T10:38:19.246Z,2.62
2019-04-26T10:40:50.983Z,6.08
2019-04-26T10:43:21.650Z,3.20
2019-04-26T10:45:53.974Z,2.27
2019-04-26T10:48:25.118Z,2.27
2019-04-26T10:50:55.757Z,3.30
2019-04-26T10:53:46.007Z,2.42
2019-04-26T10:56:55.024Z,2.87
2019-04-26T10:59:39.755Z,2.02
2019-04-26T11:02:18.085Z,2.55
2019-04-26T11:04:48.631Z,3.17
2019-04-26T11:07:19.263Z,4.53
2019-04-26T11:09:49.817Z,3.62
2019-04-26T11:12:20.997Z,3.62
2019-04-26T11:14:53.373Z,3.55
2019-04-26T11:17:25.738Z,2.90
2019-04-26T11:19:56.282Z,2.60
2019-04-26T11:22:29.263Z,2.87
2019-04-26T11:24:59.175Z,2.83
2019-04-26T11:27:30.231Z,3.50
2019-04-26T11:30:11.136Z,4.55
2019-04-26T11:32:36.648Z,2.80
2019-04-26T11:35:05.960Z,2.67
2019-04-26T11:37:36.629Z,4.33
2019-04-26T11:40:10.264Z,1.67
2019-04-26T11:42:41.952Z,4.75
2019-04-26T11:45:14.737Z,2.97
2019-04-26T11:47:55.920Z,3.62
2019-04-26T11:50:19.505Z,1.80
2019-04-26T11:52:50.063Z,5.33
2019-04-26T11:55:20.691Z,2.17
2019-04-26T11:57:52.777Z,3.17
2019-04-26T12:00:31.335Z,1.90
2019-04-26T12:03:01.899Z,2.08
2019-04-26T12:05:56.523Z,4.45
2019-04-26T12:08:33.732Z,2.00
2019-04-26T12:11:04.321Z,2.17
2019-04-26T12:13:35.007Z,2.15
2019-04-26T12:16:05.539Z,3.30
2019-04-26T12:18:36.163Z,5.00
2019-04-26T12:21:06.740Z,4.22
2019-04-26T12:23:37.617Z,4.60
2019-04-26T12:26:08.150Z,2.02
2019-04-26T12:28:39.974Z,3.55
2019-04-26T12:31:11.143Z,2.05
2019-04-26T12:33:43.581Z,3.10
2019-04-26T12:36:14.437Z,3.80
2019-04-26T12:38:45.202Z,2.10
2019-04-26T12:41:17.181Z,3.22
2019-04-26T12:43:48.145Z,3.85
2019-04-26T12:46:27.077Z,4.58
2019-04-26T12:48:58.932Z,2.58
2019-04-26T12:51:29.982Z,2.58
2019-04-26T12:54:03.787Z,1.90
2019-04-26T12:56:34.744Z,2.08
2019-04-26T12:59:05.433Z,2.40
2019-04-26T13:01:36.083Z,3.42
2019-04-26T13:04:07.529Z,3.20
2019-04-26T13:06:44.412Z,3.80
2019-04-26T13:09:22.019Z,2.92
2019-04-26T13:12:16.937Z,1.22
2019-04-26T13:15:13.154Z,1.32
2019-04-26T13:17:49.035Z,2.60
2019-04-26T13:20:19.629Z,3.62
2019-04-26T13:22:54.142Z,4.00
2019-04-26T13:25:26.495Z,3.08
2019-04-26T13:27:55.040Z,1.52
2019-04-26T13:30:32.748Z,1.50
2019-04-26T13:32:57.903Z,1.60
2019-04-26T13:35:28.484Z,2.35
2019-04-26T13:37:59.151Z,1.52
2019-04-26T13:40:30.540Z,2.77
2019-04-26T13:43:01.159Z,1.42
2019-04-26T13:45:51.280Z,2.37
2019-04-26T13:48:34.751Z,1.85
2019-04-26T13:51:08.630Z,3.50
2019-04-26T13:53:39.270Z,1.70
2019-04-26T13:56:09.918Z,1.80
2019-04-26T13:58:40.613Z,3.83
2019-04-26T14:01:14.542Z,2.35
2019-04-26T14:03:44.993Z,1.65
2019-04-26T14:06:15.578Z,3.10
2019-04-26T14:08:47.196Z,3.25
2019-04-26T14:11:20.571Z,1.75
2019-04-26T14:13:50.055Z,3.70
2019-04-26T14:16:21.119Z,2.00
2019-04-26T14:18:53.637Z,3.75
2019-04-26T14:21:25.346Z,4.00
2019-04-26T14:24:15.249Z,2.75
2019-04-26T14:26:49.085Z,2.33
2019-04-26T14:29:19.832Z,2.62
2019-04-26T14:31:51.364Z,2.67
2019-04-26T14:34:22.887Z,5.03
2019-04-26T14:37:05.761Z,4.00
2019-04-26T14:39:35.279Z,2.00
2019-04-26T14:41:58.691Z,1.60
2019-04-26T14:44:31.378Z,1.77
2019-04-26T14:47:12.970Z,1.60
2019-04-26T14:49:39.186Z,3.33
2019-04-26T14:52:06.732Z,2.80
2019-04-26T14:54:37.358Z,4.78
2019-04-26T14:57:15.580Z,2.83
2019-04-26T14:59:50.624Z,3.22
2019-04-26T15:02:47.240Z,2.12
2019-04-26T15:05:38.156Z,2.27
2019-04-26T15:08:11.267Z,4.50
2019-04-26T15:10:46.648Z,3.10
2019-04-26T15:13:20.199Z,1.92
2019-04-26T15:15:46.684Z,4.25
2019-04-26T15:18:17.772Z,1.62
2019-04-26T15:20:48.409Z,3.08
2019-04-26T15:23:19.459Z,2.35
2019-04-26T15:25:52.869Z,1.98
2019-04-26T15:28:23.945Z,2.47
2019-04-26T15:30:54.555Z,4.42
2019-04-26T15:33:25.308Z,2.55
2019-04-26T15:35:56.374Z,3.00
2019-04-26T15:38:27.250Z,3.58
2019-04-26T15:41:25.289Z,3.50
2019-04-26T15:44:14.797Z,5.30
2019-04-26T15:46:57.209Z,3.92
2019-04-26T15:49:38.037Z,2.55
2019-04-26T15:52:08.601Z,3.05
2019-04-26T15:54:39.156Z,4.20
2019-04-26T15:57:09.962Z,4.00
2019-04-26T15:59:40.736Z,6.40
2019-04-26T16:02:12.402Z,3.27
2019-04-26T16:04:47.362Z,3.95
2019-04-26T16:07:27.305Z,4.28
2019-04-26T16:09:53.842Z,4.67
2019-04-26T16:12:27.171Z,4.30
2019-04-26T16:14:57.264Z,3.33
2019-04-26T16:17:27.956Z,3.87
2019-04-26T16:20:00.133Z,3.52
2019-04-26T16:22:32.765Z,3.37
2019-04-26T16:25:05.288Z,4.50
2019-04-26T16:27:36.104Z,3.30
2019-04-26T16:30:37.336Z,3.48
2019-04-26T16:33:13.409Z,4.22
2019-04-26T16:35:44.134Z,4.62
2019-04-26T16:38:33.122Z,3.85
2019-04-26T16:41:04.539Z,3.52
2019-04-26T16:43:40.300Z,6.87
2019-04-26T16:46:14.730Z,4.22
2019-04-26T16:48:42.555Z,7.55
2019-04-26T16:51:14.416Z,4.40
2019-04-26T16:54:02.489Z,4.03
2019-04-26T16:56:17.505Z,4.33
2019-04-26T16:58:48.081Z,4.33
2019-04-26T17:01:18.782Z,4.65
2019-04-26T17:03:49.520Z,7.10
2019-04-26T17:06:20.298Z,5.25
2019-04-26T17:08:58.751Z,5.10
2019-04-26T17:11:24.496Z,4.85
2019-04-26T17:13:56.981Z,4.03
2019-04-26T17:16:29.649Z,4.47
2019-04-26T17:19:00.794Z,4.90
2019-04-26T17:21:35.867Z,5.45
2019-04-26T17:24:28.836Z,5.53
2019-04-26T17:27:05.336Z,6.15
2019-04-26T17:29:34.360Z,5.30
2019-04-26T17:32:09.135Z,5.05
2019-04-26T17:34:40.416Z,5.30
2019-04-26T17:37:16.478Z,5.55
2019-04-26T17:39:47.555Z,6.15
2019-04-26T17:42:16.320Z,5.58
2019-04-26T17:44:47.128Z,5.50
2019-04-26T17:47:17.772Z,7.35
2019-04-26T17:49:50.177Z,6.00
2019-04-26T17:52:20.714Z,5.80
2019-04-26T17:54:52.884Z,5.10
2019-04-26T17:57:33.481Z,7.15
2019-04-26T18:00:06.770Z,5.45
2019-04-26T18:02:41.335Z,5.08
2019-04-26T18:05:03.353Z,7.33
2019-04-26T18:07:40.757Z,5.58
2019-04-26T18:10:07.724Z,5.45
2019-04-26T18:12:40.834Z,5.37
2019-04-26T18:15:14.626Z,5.72
2019-04-26T18:18:04.058Z,6.20
2019-04-26T18:20:53.655Z,5.10
2019-04-26T18:23:24.900Z,6.28
2019-04-26T18:25:55.643Z,4.85
2019-04-26T18:28:26.390Z,6.53
2019-04-26T18:30:57.030Z,5.28
2019-04-26T18:33:27.678Z,5.08
2019-04-26T18:35:58.293Z,4.47
2019-04-26T18:38:28.888Z,4.65
2019-04-26T18:41:01.314Z,4.08
2019-04-26T18:43:32.767Z,4.35
2019-04-26T18:46:08.277Z,4.25
2019-04-26T18:48:40.807Z,4.12
2019-04-26T18:51:12.290Z,4.67
2019-04-26T18:54:05.021Z,4.05
2019-04-26T18:56:40.475Z,5.40
2019-04-26T18:59:11.781Z,4.03
2019-04-26T19:01:42.740Z,3.95
2019-04-26T19:04:15.464Z,3.72
2019-04-26T19:06:45.767Z,3.52
2019-04-26T19:09:18.564Z,4.70
2019-04-26T19:11:49.926Z,4.40
2019-04-26T19:14:49.047Z,4.05
2019-04-26T19:17:43.506Z,5.15
2019-04-26T19:20:32.372Z,5.62
2019-04-26T19:23:04.853Z,5.92
2019-04-26T19:25:40.628Z,5.95
2019-04-26T19:28:08.491Z,5.50
2019-04-26T19:30:49.071Z,5.60
2019-04-26T19:33:17.035Z,5.62
2019-04-26T19:35:47.376Z,5.60
2019-04-26T19:38:17.675Z,5.22
2019-04-26T19:40:48.293Z,5.65
2019-04-26T19:43:30.742Z,4.70
2019-04-26T19:45:59.021Z,4.12
2019-04-26T19:48:41.786Z,4.50
2019-04-26T19:51:43.730Z,3.37
2019-04-26T19:54:27.525Z,3.70
2019-04-26T19:57:01.022Z,3.27
2019-04-26T19:59:33.686Z,2.87
2019-04-26T20:02:04.597Z,2.80
2019-04-26T20:04:35.197Z,3.90
2019-04-26T20:07:05.760Z,2.85
2019-04-26T20:09:36.346Z,3.20
2019-04-26T20:12:07.420Z,2.72
2019-04-26T20:14:47.488Z,3.00
2019-04-26T20:17:13.305Z,2.35
2019-04-26T20:19:47.658Z,2.70
2019-04-26T20:22:16.292Z,2.20
2019-04-26T20:24:48.736Z,2.80
2019-04-26T20:27:20.824Z,2.33
2019-04-26T20:29:51.799Z,2.40
2019-04-26T20:32:28.321Z,2.55
2019-04-26T20:35:13.250Z,2.67
2019-04-26T20:37:45.220Z,3.17
2019-04-26T20:40:22.473Z,2.50
2019-04-26T20:42:51.152Z,2.70
2019-04-26T20:45:23.066Z,2.53
2019-04-26T20:47:55.615Z,2.27
2019-04-26T20:50:28.657Z,2.33
2019-04-26T20:53:00.891Z,2.10
2019-04-26T20:55:34.315Z,1.50
2019-04-26T20:58:06.973Z,1.50
2019-04-26T21:00:37.615Z,1.70
2019-04-26T21:03:21.004Z,1.67
2019-04-26T21:05:46.059Z,1.90
2019-04-26T21:08:14.914Z,1.75
2019-04-26T21:10:45.701Z,1.85
2019-04-26T21:13:16.256Z,2.20
2019-04-26T21:15:57.803Z,1.85
2019-04-26T21:18:19.280Z,1.82
2019-04-26T21:20:49.882Z,2.35
2019-04-26T21:23:22.259Z,2.67
2019-04-26T21:26:02.910Z,2.45
2019-04-26T21:28:42.600Z,2.60
2019-04-26T21:31:24.743Z,2.52
2019-04-26T21:34:07.941Z,2.30
2019-04-26T21:37:19.121Z,2.40
2019-04-26T21:40:00.773Z,2.17
2019-04-26T21:42:33.279Z,1.98
2019-04-26T21:45:03.980Z,2.05
2019-04-26T21:47:35.511Z,2.20
2019-04-26T21:50:07.852Z,1.98
2019-04-26T21:52:38.387Z,1.95
2019-04-26T21:55:09.069Z,2.30
2019-04-26T21:57:39.600Z,1.92
2019-04-26T22:00:28.665Z,2.10
2019-04-26T22:02:59.403Z,2.12
2019-04-26T22:05:30.506Z,1.80
2019-04-26T22:08:01.086Z,1.95
2019-04-26T22:10:44.652Z,1.50
2019-04-26T22:13:23.071Z,2.25
2019-04-26T22:16:03.577Z,1.98
2019-04-26T22:18:50.489Z,2.65
2019-04-26T22:21:43.536Z,1.77
2019-04-26T22:24:34.238Z,1.65
2019-04-26T22:27:05.058Z,1.50
2019-04-26T22:29:35.594Z,1.70
2019-04-26T22:32:11.564Z,1.70
2019-04-26T22:34:44.880Z,2.40
2019-04-26T22:37:16.166Z,1.60
2019-04-26T22:39:46.467Z,1.50
2019-04-26T22:42:17.239Z,1.65
2019-04-26T22:45:03.330Z,1.82
2019-04-26T22:47:54.011Z,1.65
2019-04-26T22:50:25.062Z,2.30
2019-04-26T22:52:55.723Z,2.05
2019-04-26T22:55:27.503Z,1.98
2019-04-26T22:57:58.447Z,1.67
2019-04-26T23:01:17.301Z,1.90
2019-04-26T23:03:47.967Z,1.50
2019-04-26T23:06:18.722Z,1.65
2019-04-26T23:08:49.320Z,1.30
2019-04-26T23:11:19.888Z,1.80
2019-04-26T23:14:11.530Z,1.80
2019-04-26T23:17:04.335Z,1.72
2019-04-26T23:19:43.544Z,1.55
2019-04-26T23:22:14.335Z,1.67
2019-04-26T23:24:45.163Z,1.60
2019-04-26T23:27:20.436Z,1.92
2019-04-26T23:29:49.923Z,1.65
2019-04-26T23:32:23.367Z,1.47
2019-04-26T23:34:54.162Z,1.60
2019-04-26T23:37:27.657Z,1.90
2019-04-26T23:39:57.003Z,1.67
2019-04-26T23:42:27.581Z,2.00
2019-04-26T23:44:58.145Z,1.65
2019-04-26T23:47:32.050Z,1.75
2019-04-26T23:50:03.649Z,1.92
2019-04-26T23:52:35.775Z,2.05
2019-04-26T23:55:08.649Z,2.30
2019-04-26T23:57:40.236Z,2.35
